Terminal Aerodrome Forecast
Issued by NWS

Home | Current Version | Previous Version | Text Only | Print | Product List | Glossary On
Versions: 1 2 3 4 5 6 7 8 9 10 11 12
000
FTUS46 KLOX 272300
TAFLGB
TAF
KLGB 272329Z 2800/2824 29005KT P6SM SCT250
     FM280400 VRB03KT P6SM BKN200
     FM282100 20006KT P6SM BKN150 BKN200=

USA.gov is the U.S. government's official web portal to all federal, state and local government web resources and services.